Time;durP1;ratioP1;P1;durP2;ratioP2;P2;SDS_P1;SDS_P2;PMS_P1;PMS_P2;Temp;Humidity;BMP_temperature;BMP_pressure;BME280_temperature;BME280_humidity;BME280_pressure;Samples;Min_cycle;Max_cycle;Signal;HPM_P1;HPM_P2
2021/10/02 00:36:49;;;;;;;22.55;17.75;;;;;;;;;;4992986;28;20029;-42
2021/10/02 00:47:03;;;;;;;21.08;16.52;;;;;;;;;;4982149;28;20028;-37
2021/10/02 00:49:28;;;;;;;25.50;18.90;;;;;;;;;;4984854;28;20026;-38
2021/10/02 00:51:53;;;;;;;30.45;17.83;;;;;;;;;;4985882;28;20839;-38
2021/10/02 00:54:19;;;;;;;20.95;16.70;;;;;;;;;;4988393;28;20050;-37
2021/10/02 00:56:44;;;;;;;18.52;16.45;;;;;;;;;;4988947;28;20730;-38
2021/10/02 00:59:10;;;;;;;18.27;15.95;;;;;;;;;;4988368;28;20121;-42
2021/10/02 01:02:04;;;;;;;17.35;15.60;;;;;;;;;;4990477;28;20041;-38
2021/10/02 01:04:48;;;;;;;14.95;13.52;;;;;;;;;;5034253;28;20080;-40
2021/10/02 01:07:13;;;;;;;16.40;14.45;;;;;;;;;;4989739;28;20490;-38
2021/10/02 01:09:39;;;;;;;17.55;15.88;;;;;;;;;;4987470;28;20109;-39
2021/10/02 01:12:40;;;;;;;15.55;13.70;;;;;;;;;;4990917;28;20771;-39
2021/10/02 01:15:07;;;;;;;19.20;13.32;;;;;;;;;;5029940;28;20025;-42
2021/10/02 01:17:40;;;;;;;20.83;14.57;;;;;;;;;;4996969;28;20099;-38
2021/10/02 01:20:10;;;;;;;17.48;15.48;;;;;;;;;;4991748;28;20119;-38
2021/10/02 01:22:38;;;;;;;17.83;16.10;;;;;;;;;;4988438;28;20025;-39
2021/10/02 01:25:07;;;;;;;19.85;16.90;;;;;;;;;;4989801;28;20026;-40
2021/10/02 01:27:55;;;;;;;16.38;14.70;;;;;;;;;;4989949;28;20057;-39
2021/10/02 01:49:17;;;;;;;22.30;20.05;;;;;;;;;;4993908;28;20091;-40
2021/10/02 01:51:43;;;;;;;23.60;21.30;;;;;;;;;;4989681;28;20030;-39
2021/10/02 01:54:10;;;;;;;23.35;17.73;;;;;;;;;;4989690;28;20033;-41
2021/10/02 01:56:36;;;;;;;18.75;16.88;;;;;;;;;;4988859;28;20026;-39
2021/10/02 01:59:01;;;;;;;20.52;16.80;;;;;;;;;;4986087;28;20030;-42
2021/10/02 02:01:28;;;;;;;18.55;16.70;;;;;;;;;;4988003;28;20056;-40
2021/10/02 02:03:55;;;;;;;19.63;17.38;;;;;;;;;;4986465;28;20026;-39
2021/10/02 02:06:22;;;;;;;22.95;16.65;;;;;;;;;;4993659;28;20435;-40
2021/10/02 02:08:48;;;;;;;18.23;16.27;;;;;;;;;;4989014;28;20121;-40
2021/10/02 02:11:13;;;;;;;16.48;14.98;;;;;;;;;;4987555;28;20109;-45
2021/10/02 02:13:39;;;;;;;20.25;17.10;;;;;;;;;;4984852;28;20038;-40
2021/10/02 02:16:05;;;;;;;22.00;19.75;;;;;;;;;;4984500;28;20117;-40
2021/10/02 02:18:30;;;;;;;26.17;19.60;;;;;;;;;;4988128;28;20046;-40
2021/10/02 02:21:09;;;;;;;25.00;19.40;;;;;;;;;;4991624;28;20034;-46
2021/10/02 02:23:35;;;;;;;22.88;20.13;;;;;;;;;;4986822;28;20023;-49
2021/10/02 02:26:04;;;;;;;26.65;22.08;;;;;;;;;;4994486;28;20089;-40
2021/10/02 02:28:30;;;;;;;23.15;19.88;;;;;;;;;;4987331;28;20488;-40
2021/10/02 02:30:55;;;;;;;26.27;19.35;;;;;;;;;;4991403;28;20715;-41
2021/10/02 02:33:20;;;;;;;22.13;18.30;;;;;;;;;;4984358;28;20105;-41
2021/10/02 02:35:46;;;;;;;34.33;18.77;;;;;;;;;;4988083;28;20471;-43
2021/10/02 02:38:12;;;;;;;24.67;16.27;;;;;;;;;;4987427;28;20034;-39
2021/10/02 02:40:38;;;;;;;20.48;18.27;;;;;;;;;;4985972;28;20662;-42
2021/10/02 02:43:03;;;;;;;19.40;17.48;;;;;;;;;;4989943;28;20373;-42
2021/10/02 02:45:29;;;;;;;20.00;17.75;;;;;;;;;;4986482;28;20479;-41
2021/10/02 02:47:57;;;;;;;27.80;19.58;;;;;;;;;;4992941;28;20500;-39
2021/10/02 02:50:41;;;;;;;20.90;19.00;;;;;;;;;;4986607;28;20022;-44
2021/10/02 02:53:29;;;;;;;19.00;16.98;;;;;;;;;;4989592;28;20031;-42
2021/10/02 02:55:57;;;;;;;16.40;14.82;;;;;;;;;;4989451;28;20036;-41
2021/10/02 02:58:24;;;;;;;17.25;15.68;;;;;;;;;;4984750;28;20038;-39
2021/10/02 03:00:56;;;;;;;16.98;15.30;;;;;;;;;;4987922;28;20034;-38
2021/10/02 03:03:31;;;;;;;17.88;16.10;;;;;;;;;;4989404;28;20018;-41
2021/10/02 03:05:58;;;;;;;23.40;18.08;;;;;;;;;;4985239;28;20092;-39
2021/10/02 03:08:24;;;;;;;20.17;18.17;;;;;;;;;;4986344;28;20074;-43
2021/10/02 03:10:52;;;;;;;22.27;15.30;;;;;;;;;;4991674;28;20729;-38
2021/10/02 03:13:19;;;;;;;24.48;20.17;;;;;;;;;;4989607;28;20022;-38
2021/10/02 03:15:46;;;;;;;19.67;17.58;;;;;;;;;;4988929;28;20398;-39
2021/10/02 03:18:13;;;;;;;18.30;16.42;;;;;;;;;;4982006;28;20030;-39
2021/10/02 03:20:40;;;;;;;19.25;14.70;;;;;;;;;;4987971;28;20025;-39
2021/10/02 03:23:06;;;;;;;22.63;15.88;;;;;;;;;;4988198;28;20271;-38
2021/10/02 03:25:32;;;;;;;29.77;17.85;;;;;;;;;;4991320;28;20483;-40
2021/10/02 03:27:59;;;;;;;18.08;16.42;;;;;;;;;;4994960;28;20105;-40
2021/10/02 03:30:25;;;;;;;21.63;17.10;;;;;;;;;;4986198;28;20027;-39
2021/10/02 03:32:51;;;;;;;18.20;16.20;;;;;;;;;;4986403;28;20403;-38
2021/10/02 03:35:19;;;;;;;37.92;34.15;;;;;;;;;;4985932;28;20030;-40
2021/10/02 03:37:45;;;;;;;24.20;21.95;;;;;;;;;;4991185;28;20026;-40
2021/10/02 03:40:11;;;;;;;23.35;20.70;;;;;;;;;;4993382;28;20030;-38
2021/10/02 03:42:43;;;;;;;26.67;20.48;;;;;;;;;;4988578;28;20058;-44
2021/10/02 03:45:09;;;;;;;26.75;21.55;;;;;;;;;;4988409;28;20061;-38
2021/10/02 03:47:34;;;;;;;27.10;20.90;;;;;;;;;;4986088;28;20059;-40
2021/10/02 03:49:59;;;;;;;39.30;21.85;;;;;;;;;;4987710;28;20022;-43
2021/10/02 03:52:24;;;;;;;22.60;20.25;;;;;;;;;;4989434;28;20018;-42
2021/10/02 03:54:50;;;;;;;21.50;17.70;;;;;;;;;;4984532;28;20019;-39
2021/10/02 03:57:15;;;;;;;22.35;18.20;;;;;;;;;;4985503;28;20045;-39
2021/10/02 03:59:40;;;;;;;23.92;18.25;;;;;;;;;;4988074;28;20220;-38
2021/10/02 04:02:06;;;;;;;20.17;17.77;;;;;;;;;;4983808;28;20035;-39
2021/10/02 04:04:32;;;;;;;17.45;15.88;;;;;;;;;;4990268;28;20147;-37
2021/10/02 04:06:57;;;;;;;23.50;17.42;;;;;;;;;;4985310;28;20019;-42
2021/10/02 04:09:24;;;;;;;20.55;17.05;;;;;;;;;;4988323;28;20026;-39
2021/10/02 04:11:49;;;;;;;16.80;15.27;;;;;;;;;;4993429;28;20034;-40
2021/10/02 04:14:15;;;;;;;15.82;14.40;;;;;;;;;;4991202;28;20733;-38
2021/10/02 04:16:40;;;;;;;17.88;15.93;;;;;;;;;;4989596;28;20022;-38
2021/10/02 04:19:05;;;;;;;16.75;15.05;;;;;;;;;;4989255;28;20026;-38
2021/10/02 04:21:31;;;;;;;24.38;15.65;;;;;;;;;;4986817;28;20840;-39
2021/10/02 04:23:56;;;;;;;16.42;14.95;;;;;;;;;;4990293;28;20034;-40
2021/10/02 04:26:22;;;;;;;20.70;15.07;;;;;;;;;;4986240;28;20014;-40
2021/10/02 04:28:48;;;;;;;17.35;15.57;;;;;;;;;;4976786;28;20026;-38
2021/10/02 04:31:15;;;;;;;19.60;14.57;;;;;;;;;;4987459;28;20030;-38
2021/10/02 04:33:40;;;;;;;17.10;15.38;;;;;;;;;;4986841;28;20026;-41
2021/10/02 04:36:05;;;;;;;19.17;15.68;;;;;;;;;;4982886;28;20037;-39
2021/10/02 04:38:31;;;;;;;28.23;19.17;;;;;;;;;;4986429;28;20069;-39
2021/10/02 04:40:56;;;;;;;19.48;17.48;;;;;;;;;;4977664;28;20113;-40
2021/10/02 04:43:21;;;;;;;19.42;17.00;;;;;;;;;;4986183;28;20495;-39
2021/10/02 04:45:47;;;;;;;19.92;17.85;;;;;;;;;;4988422;28;20535;-38
2021/10/02 04:48:12;;;;;;;19.15;17.20;;;;;;;;;;4983166;28;20052;-39
2021/10/02 04:50:37;;;;;;;25.05;17.30;;;;;;;;;;4991857;28;20198;-39
2021/10/02 04:53:03;;;;;;;19.02;17.15;;;;;;;;;;4985269;28;20019;-38
2021/10/02 04:55:28;;;;;;;24.92;18.65;;;;;;;;;;4987042;28;20059;-40
2021/10/02 04:57:53;;;;;;;23.58;18.88;;;;;;;;;;4985241;28;20111;-39
2021/10/02 05:00:19;;;;;;;27.48;21.17;;;;;;;;;;4985337;28;20026;-40
2021/10/02 05:02:44;;;;;;;30.58;21.20;;;;;;;;;;4984294;28;20018;-38
2021/10/02 05:05:10;;;;;;;22.25;20.02;;;;;;;;;;4982742;28;20109;-38
2021/10/02 05:07:35;;;;;;;29.38;22.77;;;;;;;;;;4984531;28;20398;-39
2021/10/02 05:10:00;;;;;;;38.05;23.52;;;;;;;;;;4990479;28;20115;-39
2021/10/02 05:12:25;;;;;;;31.10;23.20;;;;;;;;;;4987393;28;20121;-39
2021/10/02 05:14:51;;;;;;;28.88;22.52;;;;;;;;;;4983715;28;20032;-39
2021/10/02 05:17:17;;;;;;;21.95;19.83;;;;;;;;;;4990474;28;20695;-40
2021/10/02 05:19:43;;;;;;;28.17;20.77;;;;;;;;;;4990383;28;20077;-39
2021/10/02 05:22:08;;;;;;;31.27;21.63;;;;;;;;;;4986666;28;20758;-46
2021/10/02 05:24:37;;;;;;;32.13;18.35;;;;;;;;;;4985163;28;20530;-38
2021/10/02 05:27:06;;;;;;;20.33;17.48;;;;;;;;;;4991549;28;20022;-38
2021/10/02 05:29:33;;;;;;;22.55;20.15;;;;;;;;;;4990349;28;20032;-38
2021/10/02 05:31:58;;;;;;;19.35;17.67;;;;;;;;;;4987568;28;20310;-38
2021/10/02 05:34:23;;;;;;;18.00;16.25;;;;;;;;;;4987915;28;20489;-39
2021/10/02 05:36:48;;;;;;;24.45;22.10;;;;;;;;;;4986074;28;20091;-38
2021/10/02 05:39:14;;;;;;;17.70;15.88;;;;;;;;;;4988066;28;20095;-39
2021/10/02 05:41:39;;;;;;;19.45;17.15;;;;;;;;;;4990643;28;20099;-40
2021/10/02 05:44:04;;;;;;;17.85;15.90;;;;;;;;;;4987902;28;20692;-41
2021/10/02 05:46:30;;;;;;;18.17;16.25;;;;;;;;;;4989085;28;20022;-39
2021/10/02 05:48:55;;;;;;;19.20;17.05;;;;;;;;;;4989704;28;20565;-40
2021/10/02 05:51:21;;;;;;;18.88;16.95;;;;;;;;;;4990247;28;20022;-38
2021/10/02 05:53:46;;;;;;;23.48;16.55;;;;;;;;;;4990139;28;20563;-40
2021/10/02 05:56:11;;;;;;;18.70;17.10;;;;;;;;;;4990815;28;20026;-42
2021/10/02 05:58:36;;;;;;;17.95;16.05;;;;;;;;;;4987204;28;20113;-42
2021/10/02 06:01:02;;;;;;;18.40;15.43;;;;;;;;;;4983828;28;20066;-39
2021/10/02 06:03:27;;;;;;;16.70;15.10;;;;;;;;;;4993246;28;20536;-38
2021/10/02 06:05:52;;;;;;;17.23;15.32;;;;;;;;;;4991515;28;20053;-38
2021/10/02 06:08:18;;;;;;;17.08;15.30;;;;;;;;;;4988458;28;20022;-39
2021/10/02 06:10:43;;;;;;;17.23;15.63;;;;;;;;;;4986663;28;20026;-38
2021/10/02 06:13:08;;;;;;;22.85;17.77;;;;;;;;;;4984834;28;20030;-39
2021/10/02 06:15:33;;;;;;;31.98;20.13;;;;;;;;;;4989918;28;20114;-39
2021/10/02 06:17:59;;;;;;;22.33;18.38;;;;;;;;;;4988662;28;20057;-39
2021/10/02 06:20:25;;;;;;;39.13;19.83;;;;;;;;;;4987380;28;20041;-41
2021/10/02 06:22:50;;;;;;;24.17;19.55;;;;;;;;;;4980374;28;20491;-38
2021/10/02 06:25:16;;;;;;;56.38;49.05;;;;;;;;;;4989449;28;20029;-39
2021/10/02 06:27:41;;;;;;;24.85;21.98;;;;;;;;;;4986721;28;20029;-39
2021/10/02 06:30:08;;;;;;;32.60;20.73;;;;;;;;;;4992946;28;20022;-38
2021/10/02 06:32:33;;;;;;;22.75;20.65;;;;;;;;;;4988603;28;20102;-41
2021/10/02 06:34:58;;;;;;;23.35;20.25;;;;;;;;;;4985602;28;20026;-39
2021/10/02 06:37:24;;;;;;;21.95;18.48;;;;;;;;;;4987825;28;20023;-38
2021/10/02 06:39:49;;;;;;;20.35;17.15;;;;;;;;;;4990980;28;20027;-45
2021/10/02 06:42:14;;;;;;;21.38;19.27;;;;;;;;;;4991125;28;20041;-45
2021/10/02 06:44:40;;;;;;;25.17;19.08;;;;;;;;;;4988598;28;20041;-41
2021/10/02 06:47:05;;;;;;;23.10;19.55;;;;;;;;;;4989277;28;20068;-44
2021/10/02 06:49:31;;;;;;;35.53;29.48;;;;;;;;;;4989086;28;20459;-43
2021/10/02 06:51:57;;;;;;;33.47;20.15;;;;;;;;;;4984195;28;20026;-48
2021/10/02 06:54:22;;;;;;;29.35;19.58;;;;;;;;;;4985101;28;20030;-48
2021/10/02 06:56:47;;;;;;;28.90;25.70;;;;;;;;;;4984071;28;20675;-49
2021/10/02 06:59:13;;;;;;;32.85;24.23;;;;;;;;;;4986151;28;20029;-46
2021/10/02 07:01:38;;;;;;;23.73;20.30;;;;;;;;;;4986913;28;20547;-49
2021/10/02 07:04:03;;;;;;;31.02;26.67;;;;;;;;;;4982578;28;20022;-48
2021/10/02 07:06:29;;;;;;;34.85;21.77;;;;;;;;;;4986135;28;20499;-50
2021/10/02 07:08:54;;;;;;;34.63;19.17;;;;;;;;;;4985091;28;20022;-46
2021/10/02 07:11:19;;;;;;;26.05;20.92;;;;;;;;;;4981623;28;20030;-47
2021/10/02 07:13:45;;;;;;;21.80;19.65;;;;;;;;;;4985191;28;20151;-45
2021/10/02 07:16:10;;;;;;;28.00;25.23;;;;;;;;;;4993041;28;20730;-50
2021/10/02 07:18:35;;;;;;;39.42;35.40;;;;;;;;;;4989112;28;20034;-48
2021/10/02 07:21:01;;;;;;;49.08;42.92;;;;;;;;;;4990225;28;20030;-44
2021/10/02 07:23:29;;;;;;;52.67;43.50;;;;;;;;;;4987061;28;20050;-40
2021/10/02 07:25:55;;;;;;;57.97;50.10;;;;;;;;;;4986239;28;20069;-41
2021/10/02 07:28:20;;;;;;;56.50;48.53;;;;;;;;;;4983299;28;20691;-38
2021/10/02 07:30:45;;;;;;;54.92;49.25;;;;;;;;;;4986661;28;20045;-42
2021/10/02 07:33:11;;;;;;;55.10;43.50;;;;;;;;;;4987852;28;20121;-42
2021/10/02 07:35:36;;;;;;;36.30;32.60;;;;;;;;;;4991168;28;20557;-43
2021/10/02 07:38:01;;;;;;;35.50;26.00;;;;;;;;;;4989503;28;20025;-48
2021/10/02 07:40:26;;;;;;;28.83;19.95;;;;;;;;;;4989516;28;20113;-46
2021/10/02 07:42:53;;;;;;;19.90;17.80;;;;;;;;;;4991656;28;20053;-42
2021/10/02 07:45:19;;;;;;;28.85;22.50;;;;;;;;;;4991376;28;20022;-44
2021/10/02 07:47:45;;;;;;;31.75;25.70;;;;;;;;;;4990548;28;20491;-45
2021/10/02 07:50:12;;;;;;;34.30;27.08;;;;;;;;;;4994930;28;20022;-46
2021/10/02 07:52:38;;;;;;;45.53;30.70;;;;;;;;;;4985845;28;20116;-48
2021/10/02 07:55:04;;;;;;;41.45;27.25;;;;;;;;;;4988687;28;20440;-48
2021/10/02 07:57:31;;;;;;;33.42;25.58;;;;;;;;;;4978811;28;21792;-47
2021/10/02 07:59:56;;;;;;;30.33;24.77;;;;;;;;;;4985430;28;20123;-44
2021/10/02 08:02:23;;;;;;;21.40;19.15;;;;;;;;;;4986305;28;20550;-44
2021/10/02 08:04:48;;;;;;;27.73;24.50;;;;;;;;;;4994206;28;20026;-47
2021/10/02 08:07:14;;;;;;;21.00;19.02;;;;;;;;;;4990217;28;20021;-49
2021/10/02 08:09:40;;;;;;;23.45;21.13;;;;;;;;;;4987718;28;20023;-46
2021/10/02 08:12:05;;;;;;;20.65;18.23;;;;;;;;;;4992499;28;20037;-46
2021/10/02 08:14:30;;;;;;;21.35;17.80;;;;;;;;;;4984845;28;20083;-44
2021/10/02 08:16:57;;;;;;;19.63;14.90;;;;;;;;;;4989433;28;20026;-44
2021/10/02 08:19:22;;;;;;;20.90;15.18;;;;;;;;;;4984236;28;20030;-44
2021/10/02 08:21:49;;;;;;;17.23;15.60;;;;;;;;;;4984844;28;20026;-44
2021/10/02 08:24:14;;;;;;;16.63;14.63;;;;;;;;;;4984416;28;20026;-44
2021/10/02 08:26:40;;;;;;;15.13;13.73;;;;;;;;;;4990580;28;20349;-48
2021/10/02 08:29:06;;;;;;;16.65;12.43;;;;;;;;;;4987120;28;20542;-46
2021/10/02 08:31:33;;;;;;;14.02;12.80;;;;;;;;;;4984724;28;20061;-44
2021/10/02 08:33:58;;;;;;;14.80;13.40;;;;;;;;;;4989414;28;20563;-45
2021/10/02 08:36:23;;;;;;;13.60;12.30;;;;;;;;;;4978584;28;20031;-49
2021/10/02 08:38:49;;;;;;;15.05;13.65;;;;;;;;;;4989080;28;20043;-49
2021/10/02 08:41:19;;;;;;;14.65;13.18;;;;;;;;;;4989664;28;20566;-46
2021/10/02 08:43:49;;;;;;;12.05;10.88;;;;;;;;;;4989254;28;20097;-46
2021/10/02 08:46:15;;;;;;;14.70;13.30;;;;;;;;;;4985202;28;20050;-45
2021/10/02 08:48:42;;;;;;;14.25;10.77;;;;;;;;;;4987477;28;20579;-47
2021/10/02 08:51:07;;;;;;;16.48;14.02;;;;;;;;;;4992148;28;20034;-46
2021/10/02 08:53:33;;;;;;;16.98;13.13;;;;;;;;;;4992342;28;20619;-43
2021/10/02 08:56:02;;;;;;;11.80;10.70;;;;;;;;;;4990784;28;20702;-45
2021/10/02 08:58:28;;;;;;;12.82;11.48;;;;;;;;;;4988989;28;20777;-42
2021/10/02 09:00:53;;;;;;;11.20;10.15;;;;;;;;;;4989237;28;20036;-44
2021/10/02 09:03:21;;;;;;;14.75;13.43;;;;;;;;;;4988205;28;20022;-47
2021/10/02 09:05:47;;;;;;;70.13;54.17;;;;;;;;;;4988244;28;20030;-47
2021/10/02 09:08:13;;;;;;;15.73;14.32;;;;;;;;;;4987350;28;20022;-42
2021/10/02 09:10:38;;;;;;;29.85;21.98;;;;;;;;;;4989927;28;20026;-42
2021/10/02 09:13:04;;;;;;;33.03;25.30;;;;;;;;;;4991680;28;20523;-43
2021/10/02 09:15:29;;;;;;;30.52;17.75;;;;;;;;;;4989649;28;20030;-43
2021/10/02 09:17:56;;;;;;;16.15;14.48;;;;;;;;;;4987591;28;20033;-44
2021/10/02 09:20:22;;;;;;;15.40;13.80;;;;;;;;;;4986663;28;20022;-47
2021/10/02 09:23:04;;;;;;;23.17;18.38;;;;;;;;;;4990278;28;20026;-43
2021/10/02 09:25:31;;;;;;;19.38;17.40;;;;;;;;;;4989733;28;20056;-44
2021/10/02 09:28:15;;;;;;;18.95;16.98;;;;;;;;;;4989716;28;20034;-41
2021/10/02 09:30:42;;;;;;;19.90;17.58;;;;;;;;;;4987801;28;20560;-45
2021/10/02 09:33:20;;;;;;;20.77;18.83;;;;;;;;;;4988429;28;20033;-42
2021/10/02 09:35:45;;;;;;;19.83;17.92;;;;;;;;;;4992177;28;20038;-44
2021/10/02 09:38:13;;;;;;;18.10;16.23;;;;;;;;;;4990839;28;20087;-44
2021/10/02 09:40:38;;;;;;;254.18;193.43;;;;;;;;;;4993352;28;20119;-44
2021/10/02 09:43:04;;;;;;;243.77;185.10;;;;;;;;;;4989344;28;20096;-41
2021/10/02 09:45:35;;;;;;;27.70;24.80;;;;;;;;;;4990277;28;20026;-43
2021/10/02 09:48:01;;;;;;;34.88;27.58;;;;;;;;;;4988821;28;20026;-42
2021/10/02 09:50:37;;;;;;;48.25;34.50;;;;;;;;;;4992762;28;20029;-42
2021/10/02 09:53:07;;;;;;;208.95;162.40;;;;;;;;;;4988187;28;20034;-42
2021/10/02 09:55:37;;;;;;;142.63;120.60;;;;;;;;;;4991153;28;20600;-41
2021/10/02 09:58:04;;;;;;;78.75;62.47;;;;;;;;;;4988975;28;20109;-44
2021/10/02 10:00:40;;;;;;;66.40;53.70;;;;;;;;;;4987370;28;20031;-51
2021/10/02 10:03:07;;;;;;;90.78;70.88;;;;;;;;;;4990469;28;20067;-43
2021/10/02 10:05:34;;;;;;;60.45;53.35;;;;;;;;;;4986457;28;20045;-40
2021/10/02 10:08:00;;;;;;;45.40;35.05;;;;;;;;;;4990712;28;20148;-40
2021/10/02 10:10:29;;;;;;;80.15;53.45;;;;;;;;;;4991905;28;20025;-43
2021/10/02 10:12:55;;;;;;;49.20;33.67;;;;;;;;;;4986670;28;20065;-41
2021/10/02 10:15:27;;;;;;;19.48;16.52;;;;;;;;;;4987535;28;20062;-46
2021/10/02 10:17:53;;;;;;;22.38;17.70;;;;;;;;;;4992687;28;20034;-44
2021/10/02 10:20:18;;;;;;;14.85;13.52;;;;;;;;;;4988260;28;20041;-43
2021/10/02 10:22:44;;;;;;;14.55;13.25;;;;;;;;;;4986595;28;20057;-44
2021/10/02 10:25:11;;;;;;;15.27;13.90;;;;;;;;;;4993122;28;20031;-44
2021/10/02 10:27:46;;;;;;;14.18;12.60;;;;;;;;;;4987849;28;20036;-47
2021/10/02 10:30:13;;;;;;;12.00;10.85;;;;;;;;;;4991332;28;20109;-45
2021/10/02 10:32:53;;;;;;;14.27;12.85;;;;;;;;;;4989988;28;20029;-46
2021/10/02 10:35:19;;;;;;;12.77;11.17;;;;;;;;;;4989871;28;20022;-45
2021/10/02 10:37:44;;;;;;;13.18;11.27;;;;;;;;;;4988312;28;20041;-46
2021/10/02 10:40:10;;;;;;;10.73;9.82;;;;;;;;;;4991416;28;20093;-42
2021/10/02 10:42:35;;;;;;;17.00;12.00;;;;;;;;;;4986603;28;20349;-46
2021/10/02 10:45:00;;;;;;;14.70;13.15;;;;;;;;;;4992592;28;20387;-42
2021/10/02 10:47:26;;;;;;;14.88;13.48;;;;;;;;;;4990696;28;20030;-44
2021/10/02 10:49:51;;;;;;;13.38;12.05;;;;;;;;;;4984829;28;20584;-47
2021/10/02 10:52:18;;;;;;;16.42;14.68;;;;;;;;;;4991680;28;20026;-42
2021/10/02 10:54:44;;;;;;;12.68;11.38;;;;;;;;;;4992638;28;20030;-47
2021/10/02 10:57:28;;;;;;;10.35;8.82;;;;;;;;;;4984277;28;20117;-44
2021/10/02 10:59:54;;;;;;;10.15;9.15;;;;;;;;;;4990242;28;20029;-45
2021/10/02 11:02:38;;;;;;;13.02;9.18;;;;;;;;;;4986711;28;20581;-42
2021/10/02 11:05:03;;;;;;;17.73;8.60;;;;;;;;;;4983958;28;20069;-47
2021/10/02 11:07:47;;;;;;;29.13;8.35;;;;;;;;;;4990101;28;20509;-46
2021/10/02 11:10:31;;;;;;;7.50;6.80;;;;;;;;;;4991537;28;20023;-46
2021/10/02 11:12:56;;;;;;;11.82;7.53;;;;;;;;;;4984680;28;20022;-49
2021/10/02 11:15:25;;;;;;;7.95;6.88;;;;;;;;;;4988552;28;20026;-46
2021/10/02 11:17:50;;;;;;;13.75;8.30;;;;;;;;;;4993304;28;20606;-43
2021/10/02 11:20:21;;;;;;;17.17;8.25;;;;;;;;;;4990684;28;20030;-43
2021/10/02 11:23:08;;;;;;;8.35;7.65;;;;;;;;;;4983885;28;20025;-44
2021/10/02 11:25:34;;;;;;;9.65;6.95;;;;;;;;;;4991233;28;20108;-44
2021/10/02 11:28:26;;;;;;;7.72;7.00;;;;;;;;;;4991573;28;20162;-42
2021/10/02 11:30:52;;;;;;;8.55;7.85;;;;;;;;;;4992141;28;20499;-44
2021/10/02 11:33:26;;;;;;;9.02;8.07;;;;;;;;;;4990320;28;20042;-47
2021/10/02 11:35:52;;;;;;;8.65;6.93;;;;;;;;;;4985331;28;20049;-42
2021/10/02 11:38:32;;;;;;;9.85;7.00;;;;;;;;;;4988108;28;20482;-45
2021/10/02 11:40:58;;;;;;;;;;;;;;;;;;4989908;28;20034;-47
2021/10/02 11:43:23;;;;;;;9.60;7.47;;;;;;;;;;4985602;28;19922;-45
2021/10/02 11:45:49;;;;;;;11.70;8.52;;;;;;;;;;4984568;28;20027;-43
2021/10/02 11:48:19;;;;;;;15.15;13.18;;;;;;;;;;4989602;28;20524;-42
2021/10/02 11:50:45;;;;;;;19.33;7.85;;;;;;;;;;4987594;28;20026;-44
2021/10/02 11:53:10;;;;;;;9.98;6.70;;;;;;;;;;4986494;28;20049;-44
2021/10/02 11:55:36;;;;;;;6.68;6.15;;;;;;;;;;4985439;28;20038;-43
2021/10/02 11:58:08;;;;;;;9.35;7.65;;;;;;;;;;4991242;28;20382;-42
2021/10/02 12:00:34;;;;;;;6.57;5.53;;;;;;;;;;4989876;28;20109;-43
2021/10/02 12:03:01;;;;;;;10.27;5.65;;;;;;;;;;4992746;28;20060;-41
2021/10/02 12:05:26;;;;;;;6.82;6.22;;;;;;;;;;4985725;28;20042;-46
2021/10/02 12:07:53;;;;;;;6.53;5.28;;;;;;;;;;4975612;28;20033;-45
2021/10/02 12:10:19;;;;;;;5.88;5.28;;;;;;;;;;4990830;28;20030;-42
2021/10/02 12:12:44;;;;;;;5.20;4.70;;;;;;;;;;4984524;28;20398;-45
2021/10/02 12:15:09;;;;;;;4.68;3.42;;;;;;;;;;4983713;28;20442;-45
2021/10/02 12:17:34;;;;;;;5.90;5.30;;;;;;;;;;4988121;28;20057;-43
2021/10/02 12:20:00;;;;;;;6.00;4.80;;;;;;;;;;4984976;28;20018;-46
2021/10/02 12:22:29;;;;;;;7.78;7.10;;;;;;;;;;4986180;28;20073;-40
2021/10/02 12:24:54;;;;;;;6.70;6.00;;;;;;;;;;4993404;28;20030;-43
2021/10/02 12:27:20;;;;;;;6.85;5.57;;;;;;;;;;4993893;28;20032;-40
2021/10/02 12:29:48;;;;;;;11.88;6.72;;;;;;;;;;4990500;28;20023;-44
2021/10/02 12:32:13;;;;;;;6.38;5.78;;;;;;;;;;4989680;28;20474;-41
2021/10/02 12:34:55;;;;;;;4.30;3.90;;;;;;;;;;4985821;28;20036;-43
2021/10/02 12:37:30;;;;;;;7.30;6.40;;;;;;;;;;4984797;28;20113;-43
2021/10/02 12:39:57;;;;;;;7.85;5.07;;;;;;;;;;4990589;28;20105;-47
2021/10/02 12:42:35;;;;;;;10.20;5.13;;;;;;;;;;4993709;28;20022;-44
2021/10/02 12:45:01;;;;;;;7.88;6.97;;;;;;;;;;4988522;28;20141;-45
2021/10/02 12:47:27;;;;;;;9.35;5.15;;;;;;;;;;4991777;28;20091;-47
2021/10/02 12:49:56;;;;;;;5.85;4.43;;;;;;;;;;4991092;28;20033;-43
2021/10/02 12:52:21;;;;;;;8.18;4.47;;;;;;;;;;4991625;28;20038;-43
2021/10/02 12:54:48;;;;;;;9.18;4.72;;;;;;;;;;4986820;28;20568;-41
2021/10/02 12:57:16;;;;;;;5.30;4.80;;;;;;;;;;4993989;28;20029;-44
2021/10/02 12:59:51;;;;;;;4.88;3.47;;;;;;;;;;4993006;28;20034;-42
2021/10/02 13:02:17;;;;;;;8.05;6.63;;;;;;;;;;4990175;28;20278;-40
2021/10/02 13:04:43;;;;;;;7.97;5.63;;;;;;;;;;4990319;28;20287;-42
2021/10/02 13:07:08;;;;;;;8.57;4.97;;;;;;;;;;4993984;28;20516;-42
2021/10/02 13:09:52;;;;;;;5.95;4.85;;;;;;;;;;4984208;28;20493;-46
2021/10/02 13:12:24;;;;;;;8.98;6.35;;;;;;;;;;4985757;28;20390;-47
2021/10/02 13:14:49;;;;;;;13.90;11.88;;;;;;;;;;4985956;28;20027;-40
2021/10/02 13:17:14;;;;;;;8.85;7.93;;;;;;;;;;4991105;28;20756;-44
2021/10/02 13:19:40;;;;;;;5.20;4.70;;;;;;;;;;4992771;28;20569;-42
2021/10/02 13:22:18;;;;;;;7.20;6.38;;;;;;;;;;4990279;28;20117;-43
2021/10/02 13:25:20;;;;;;;10.48;8.45;;;;;;;;;;4984966;28;20101;-43
2021/10/02 13:27:46;;;;;;;9.35;8.15;;;;;;;;;;5023976;28;20025;-44
2021/10/02 13:30:16;;;;;;;11.02;9.82;;;;;;;;;;4999966;28;20034;-44
2021/10/02 13:32:52;;;;;;;9.55;8.52;;;;;;;;;;4990110;28;20521;-49
2021/10/02 13:35:20;;;;;;;6.57;5.97;;;;;;;;;;4991425;28;20097;-44
2021/10/02 13:37:45;;;;;;;5.22;3.90;;;;;;;;;;4994024;28;20480;-45
2021/10/02 13:40:25;;;;;;;7.97;7.13;;;;;;;;;;4992499;28;20030;-46
2021/10/02 13:42:50;;;;;;;9.40;6.93;;;;;;;;;;4984359;28;20515;-47
2021/10/02 13:45:16;;;;;;;5.18;3.97;;;;;;;;;;4993401;28;20022;-47
2021/10/02 13:47:52;;;;;;;4.80;3.10;;;;;;;;;;4989290;28;20042;-44
2021/10/02 13:50:18;;;;;;;8.32;7.50;;;;;;;;;;4988640;28;20022;-46
2021/10/02 13:52:43;;;;;;;4.63;4.20;;;;;;;;;;4981498;28;20026;-49
2021/10/02 13:55:08;;;;;;;6.93;5.78;;;;;;;;;;4987947;28;20026;-46
2021/10/02 13:57:34;;;;;;;11.63;9.95;;;;;;;;;;4990759;28;20075;-45
2021/10/02 13:59:59;;;;;;;13.07;11.63;;;;;;;;;;4985386;28;20101;-50
2021/10/02 14:02:24;;;;;;;12.55;9.10;;;;;;;;;;4992383;28;20026;-49
2021/10/02 14:04:50;;;;;;;3.90;3.33;;;;;;;;;;4984408;28;20054;-45
2021/10/02 14:07:15;;;;;;;5.25;4.75;;;;;;;;;;4986095;28;20023;-46
2021/10/02 14:09:40;;;;;;;3.08;2.30;;;;;;;;;;4987731;28;20030;-46
2021/10/02 14:12:07;;;;;;;3.55;2.17;;;;;;;;;;4987045;28;20027;-44
2021/10/02 14:14:32;;;;;;;8.95;6.55;;;;;;;;;;4989302;28;20025;-46
2021/10/02 14:16:58;;;;;;;9.55;7.78;;;;;;;;;;4984591;28;20049;-43
2021/10/02 14:19:23;;;;;;;13.18;7.40;;;;;;;;;;4987985;28;20045;-46
2021/10/02 14:21:48;;;;;;;9.10;8.13;;;;;;;;;;4990575;28;20026;-44
2021/10/02 14:24:14;;;;;;;3.58;2.88;;;;;;;;;;4992964;28;20058;-46
2021/10/02 14:26:39;;;;;;;4.95;3.50;;;;;;;;;;4988721;28;20208;-43
2021/10/02 14:29:04;;;;;;;11.63;10.52;;;;;;;;;;4989033;28;20033;-42
2021/10/02 14:31:29;;;;;;;5.22;4.65;;;;;;;;;;4992927;28;20026;-45
2021/10/02 14:33:55;;;;;;;11.82;7.68;;;;;;;;;;4981276;28;20063;-43
2021/10/02 14:36:20;;;;;;;11.27;9.90;;;;;;;;;;4988753;28;20400;-45
2021/10/02 14:38:45;;;;;;;10.88;9.82;;;;;;;;;;4989343;28;20082;-46
2021/10/02 14:41:11;;;;;;;5.22;3.65;;;;;;;;;;4986089;28;20112;-44
2021/10/02 14:43:37;;;;;;;8.73;7.15;;;;;;;;;;4984002;28;20167;-44
2021/10/02 14:46:03;;;;;;;7.30;6.60;;;;;;;;;;4986895;28;20038;-45
2021/10/02 14:48:28;;;;;;;9.43;8.63;;;;;;;;;;4988123;28;20861;-45
2021/10/02 14:50:54;;;;;;;14.52;9.60;;;;;;;;;;4988228;28;20023;-46
2021/10/02 14:53:20;;;;;;;10.38;9.32;;;;;;;;;;4980736;28;20035;-43
2021/10/02 14:55:47;;;;;;;5.32;4.72;;;;;;;;;;4986383;28;20630;-44
2021/10/02 14:58:14;;;;;;;5.45;4.95;;;;;;;;;;4986437;28;20025;-41
2021/10/02 15:00:47;;;;;;;14.90;12.43;;;;;;;;;;4986748;28;20025;-42
2021/10/02 15:03:13;;;;;;;12.98;11.75;;;;;;;;;;4984221;28;20038;-43
2021/10/02 15:05:38;;;;;;;6.47;5.53;;;;;;;;;;4985522;28;20375;-47
2021/10/02 15:08:04;;;;;;;14.43;12.57;;;;;;;;;;4989915;28;20026;-44
2021/10/02 15:10:30;;;;;;;7.65;6.13;;;;;;;;;;4990985;28;20144;-41
2021/10/02 15:12:56;;;;;;;14.38;13.00;;;;;;;;;;4984658;28;20116;-42
2021/10/02 15:15:21;;;;;;;15.10;13.77;;;;;;;;;;4987071;28;20030;-45
2021/10/02 15:17:47;;;;;;;8.15;7.43;;;;;;;;;;4985076;28;20022;-42
2021/10/02 15:20:12;;;;;;;6.10;5.50;;;;;;;;;;4987470;28;20021;-46
2021/10/02 15:22:38;;;;;;;13.05;10.15;;;;;;;;;;4983136;28;20655;-44
2021/10/02 15:25:06;;;;;;;16.67;13.10;;;;;;;;;;4994701;28;20026;-42
2021/10/02 15:27:33;;;;;;;13.77;10.73;;;;;;;;;;4987206;28;20018;-41